createdAt,value
2022-07-31T00:02:03.846Z,1.80
2022-07-31T00:04:53.241Z,1.85
2022-07-31T00:07:42.457Z,1.88
2022-07-31T00:10:31.590Z,1.48
2022-07-31T00:13:20.316Z,1.40
2022-07-31T00:16:29.117Z,1.40
2022-07-31T00:19:19.970Z,1.65
2022-07-31T00:22:09.460Z,1.80
2022-07-31T00:24:58.221Z,1.63
2022-07-31T00:27:47.274Z,1.90
2022-07-31T00:30:35.976Z,1.50
2022-07-31T00:33:24.437Z,1.73
2022-07-31T00:36:14.873Z,1.65
2022-07-31T00:39:03.595Z,1.45
2022-07-31T00:41:52.405Z,1.83
2022-07-31T00:44:41.913Z,1.40
2022-07-31T00:47:30.694Z,1.55
2022-07-31T00:50:19.524Z,1.65
2022-07-31T00:53:09.913Z,1.83
2022-07-31T00:55:58.740Z,1.80
2022-07-31T00:58:48.357Z,2.40
2022-07-31T01:01:37.472Z,1.60
2022-07-31T01:04:26.543Z,1.70
2022-07-31T01:07:16.001Z,1.42
2022-07-31T01:10:12.415Z,1.45
2022-07-31T01:13:08.548Z,1.60
2022-07-31T01:15:59.732Z,1.80
2022-07-31T01:18:50.395Z,1.40
2022-07-31T01:21:48.924Z,1.70
2022-07-31T01:24:53.880Z,1.50
2022-07-31T01:28:00.664Z,1.30
2022-07-31T01:31:10.612Z,1.30
2022-07-31T01:34:09.839Z,1.48
2022-07-31T01:37:04.238Z,1.58
2022-07-31T01:40:00.944Z,1.20
2022-07-31T01:42:53.846Z,1.52
2022-07-31T01:45:45.526Z,1.50
2022-07-31T01:48:38.677Z,1.60
2022-07-31T01:51:29.282Z,1.27
2022-07-31T01:54:20.214Z,1.40
2022-07-31T01:57:09.397Z,1.60
2022-07-31T02:00:00.792Z,1.80
2022-07-31T02:02:49.931Z,1.38
2022-07-31T02:05:45.601Z,1.50
2022-07-31T02:08:35.384Z,1.30
2022-07-31T02:11:24.326Z,1.42
2022-07-31T02:14:14.370Z,1.20
2022-07-31T02:17:04.379Z,1.50
2022-07-31T02:20:00.339Z,1.45
2022-07-31T02:26:26.423Z,1.08
2022-07-31T02:29:19.375Z,1.30
2022-07-31T02:32:10.475Z,0.93
2022-07-31T02:35:01.560Z,1.00
2022-07-31T02:37:53.210Z,0.90
2022-07-31T02:40:44.145Z,1.10
2022-07-31T02:43:34.988Z,1.25
2022-07-31T02:46:24.926Z,0.90
2022-07-31T02:49:15.624Z,1.00
2022-07-31T02:52:06.119Z,0.98
2022-07-31T02:54:55.605Z,1.02
2022-07-31T02:57:48.316Z,0.90
2022-07-31T03:00:37.506Z,1.23
2022-07-31T03:03:26.504Z,1.00
2022-07-31T03:06:16.516Z,0.85
2022-07-31T03:09:05.276Z,0.93
2022-07-31T03:11:54.698Z,0.80
2022-07-31T03:14:45.742Z,0.90
2022-07-31T03:17:40.807Z,1.10
2022-07-31T03:20:30.898Z,0.90
2022-07-31T03:23:24.043Z,0.85
2022-07-31T03:26:15.126Z,1.00
2022-07-31T03:29:04.201Z,0.80
2022-07-31T03:32:15.098Z,0.82
2022-07-31T03:35:04.544Z,1.00
2022-07-31T03:37:54.186Z,1.10
2022-07-31T03:40:43.150Z,0.75
2022-07-31T03:43:47.008Z,1.17
2022-07-31T03:46:37.235Z,1.00
2022-07-31T03:49:28.901Z,1.00
2022-07-31T03:52:18.367Z,1.02
2022-07-31T03:55:07.801Z,0.80
2022-07-31T03:57:57.380Z,0.82
2022-07-31T04:00:46.674Z,0.80
2022-07-31T04:03:38.170Z,0.90
2022-07-31T04:06:28.526Z,1.00
2022-07-31T04:09:19.107Z,0.70
2022-07-31T04:12:09.224Z,0.93
2022-07-31T04:14:58.547Z,0.90
2022-07-31T04:17:48.037Z,0.75
2022-07-31T04:20:37.477Z,1.08
2022-07-31T04:23:32.533Z,0.88
2022-07-31T04:26:26.017Z,1.13
2022-07-31T04:29:16.029Z,0.77
2022-07-31T04:32:05.870Z,1.00
2022-07-31T14:50:11.988Z,0.90
2022-07-31T14:53:04.306Z,0.80
2022-07-31T14:55:53.392Z,0.63
2022-07-31T14:58:58.471Z,0.95
2022-07-31T15:01:48.147Z,1.10
2022-07-31T15:04:37.682Z,0.60
2022-07-31T15:07:36.661Z,0.80
2022-07-31T15:10:30.198Z,0.60
2022-07-31T15:13:19.220Z,0.65
2022-07-31T15:16:09.497Z,0.77
2022-07-31T15:18:58.603Z,0.60
2022-07-31T15:22:09.904Z,0.80
2022-07-31T15:24:56.133Z,1.00
2022-07-31T15:27:47.814Z,0.80
2022-07-31T15:30:36.877Z,0.90
2022-07-31T15:33:34.884Z,0.98
2022-07-31T15:36:26.707Z,0.60
2022-07-31T15:39:16.332Z,0.90
2022-07-31T15:42:05.353Z,0.60
2022-07-31T15:44:55.624Z,0.63
2022-07-31T15:47:45.781Z,0.60
2022-07-31T15:50:34.978Z,0.60
2022-07-31T15:53:29.787Z,0.60
2022-07-31T15:56:28.756Z,0.70
2022-07-31T15:59:17.251Z,0.70
2022-07-31T16:02:07.908Z,0.75
2022-07-31T16:05:02.634Z,0.73
2022-07-31T16:08:29.095Z,0.85
2022-07-31T16:11:09.818Z,0.70
2022-07-31T16:13:58.810Z,0.90
2022-07-31T16:16:47.738Z,0.90
2022-07-31T16:19:42.087Z,0.70
2022-07-31T16:22:31.191Z,0.60
2022-07-31T16:25:20.631Z,0.80
2022-07-31T16:28:09.384Z,0.75
2022-07-31T16:30:58.132Z,0.93
2022-07-31T16:33:50.771Z,0.80
2022-07-31T16:36:43.640Z,0.82
2022-07-31T16:39:33.198Z,0.68
2022-07-31T16:42:22.285Z,0.75
2022-07-31T16:45:13.378Z,0.82
2022-07-31T16:48:02.464Z,0.80
2022-07-31T16:50:54.424Z,0.70
2022-07-31T16:54:14.326Z,1.05
2022-07-31T16:56:56.315Z,0.93
2022-07-31T16:59:56.956Z,1.00
2022-07-31T17:03:00.813Z,0.70
2022-07-31T17:05:50.316Z,0.80
2022-07-31T17:08:39.654Z,0.77
2022-07-31T17:11:34.458Z,0.75
2022-07-31T17:14:24.416Z,0.90
2022-07-31T17:17:14.002Z,0.90
2022-07-31T17:20:02.733Z,0.75
2022-07-31T17:22:54.587Z,0.80
2022-07-31T17:25:43.389Z,0.82
2022-07-31T17:28:34.335Z,1.10
2022-07-31T17:31:23.372Z,0.73
2022-07-31T17:34:12.380Z,0.70
2022-07-31T17:37:02.145Z,0.98
2022-07-31T17:39:55.124Z,0.60
2022-07-31T17:42:46.872Z,0.90
2022-07-31T17:45:59.852Z,0.82
2022-07-31T17:48:49.752Z,0.80
2022-07-31T17:51:39.185Z,0.63
2022-07-31T17:54:47.719Z,0.90
2022-07-31T17:57:36.737Z,0.73
2022-07-31T18:00:27.123Z,0.60
2022-07-31T18:03:21.500Z,0.70
2022-07-31T18:06:11.034Z,1.02
2022-07-31T18:09:00.778Z,1.00
2022-07-31T18:11:49.809Z,0.93
2022-07-31T18:14:39.161Z,1.27
2022-07-31T18:17:31.515Z,1.30
2022-07-31T18:20:23.168Z,0.68
2022-07-31T18:23:11.905Z,0.90
2022-07-31T18:26:04.225Z,0.90
2022-07-31T18:28:53.282Z,0.70
2022-07-31T18:31:42.471Z,0.90
2022-07-31T18:34:31.367Z,1.10
2022-07-31T18:37:21.742Z,1.73
2022-07-31T18:40:11.074Z,1.80
2022-07-31T18:43:01.412Z,1.45
2022-07-31T18:45:50.426Z,1.25
2022-07-31T18:48:39.746Z,1.20
2022-07-31T18:51:30.571Z,0.90
2022-07-31T18:54:21.291Z,0.93
2022-07-31T18:57:10.416Z,0.90
2022-07-31T18:59:59.859Z,1.33
2022-07-31T19:02:48.985Z,1.60
2022-07-31T19:05:39.167Z,1.67
2022-07-31T19:08:28.302Z,1.60
2022-07-31T19:11:19.282Z,1.48
2022-07-31T19:14:08.744Z,1.25
2022-07-31T19:16:59.973Z,1.35
2022-07-31T19:19:54.318Z,1.33
2022-07-31T19:22:49.583Z,1.10
2022-07-31T19:26:03.072Z,1.23
2022-07-31T19:28:49.823Z,1.08
2022-07-31T19:31:38.979Z,0.93
2022-07-31T19:34:28.260Z,1.10
2022-07-31T19:37:18.048Z,1.10
2022-07-31T19:40:08.839Z,1.20
2022-07-31T19:42:59.876Z,1.30
2022-07-31T19:46:10.433Z,1.20
2022-07-31T19:48:59.773Z,1.48
2022-07-31T19:51:49.090Z,1.30
2022-07-31T19:54:38.326Z,1.70
2022-07-31T19:57:27.424Z,1.45
2022-07-31T20:00:16.981Z,1.58
2022-07-31T20:03:08.066Z,1.30
2022-07-31T20:05:57.709Z,1.50
2022-07-31T20:08:46.791Z,2.10
2022-07-31T20:11:36.043Z,1.20
2022-07-31T20:14:24.983Z,1.40
2022-07-31T20:17:14.025Z,1.50
2022-07-31T20:20:15.642Z,1.33
2022-07-31T20:23:05.280Z,1.30
2022-07-31T20:25:54.372Z,1.60
2022-07-31T20:28:44.454Z,1.27
2022-07-31T20:31:35.269Z,1.58
2022-07-31T20:34:26.049Z,1.50
2022-07-31T20:37:16.333Z,1.50
2022-07-31T20:40:07.253Z,2.25
2022-07-31T20:42:56.262Z,2.28
2022-07-31T20:45:48.063Z,1.27
2022-07-31T20:48:39.644Z,1.30
2022-07-31T20:51:28.629Z,1.50
2022-07-31T20:54:19.233Z,1.85
2022-07-31T20:57:22.689Z,1.67
2022-07-31T21:00:13.008Z,1.10
2022-07-31T21:03:02.251Z,1.30
2022-07-31T21:05:53.277Z,1.20
2022-07-31T21:08:42.713Z,1.45
2022-07-31T21:11:33.271Z,1.30
2022-07-31T21:14:21.946Z,1.17
2022-07-31T21:17:11.402Z,1.17
2022-07-31T21:20:05.593Z,1.48
2022-07-31T21:22:54.764Z,1.27
2022-07-31T21:25:44.610Z,1.55
2022-07-31T21:28:36.228Z,1.10
2022-07-31T21:31:25.864Z,1.45
2022-07-31T21:34:16.934Z,1.15
2022-07-31T21:37:06.563Z,1.30
2022-07-31T21:39:56.792Z,1.25
2022-07-31T21:42:46.478Z,1.10
2022-07-31T21:45:50.879Z,1.30
2022-07-31T21:48:47.566Z,1.40
2022-07-31T21:51:36.830Z,1.23
2022-07-31T21:54:26.079Z,1.42
2022-07-31T21:57:14.908Z,1.40
2022-07-31T22:00:04.109Z,1.20
2022-07-31T22:02:55.701Z,1.52
2022-07-31T22:06:02.466Z,1.10
2022-07-31T22:08:51.576Z,1.25
2022-07-31T22:11:40.208Z,1.80
2022-07-31T22:14:39.095Z,1.30
2022-07-31T22:17:28.183Z,1.10
2022-07-31T22:20:20.168Z,1.00
2022-07-31T22:23:10.366Z,1.20
2022-07-31T22:25:59.945Z,1.20
2022-07-31T22:28:49.554Z,1.10
2022-07-31T22:34:37.283Z,1.10
2022-07-31T22:37:29.182Z,1.10
2022-07-31T22:40:20.693Z,1.20
2022-07-31T22:44:10.389Z,1.42
2022-07-31T22:46:20.233Z,1.23
2022-07-31T22:49:11.088Z,0.90
2022-07-31T22:52:00.140Z,1.20
2022-07-31T22:54:50.518Z,1.40
2022-07-31T22:57:41.123Z,1.27
2022-07-31T23:00:30.037Z,1.10
2022-07-31T23:03:19.140Z,1.25
2022-07-31T23:06:30.798Z,1.50
2022-07-31T23:09:17.893Z,1.20
2022-07-31T23:12:09.999Z,1.27
2022-07-31T23:14:59.082Z,1.13
2022-07-31T23:17:48.203Z,1.30
2022-07-31T23:20:37.745Z,1.30
2022-07-31T23:23:26.888Z,1.48
2022-07-31T23:26:17.302Z,1.40
2022-07-31T23:29:08.054Z,1.42
2022-07-31T23:32:05.694Z,1.02
2022-07-31T23:34:56.635Z,1.20
2022-07-31T23:37:45.727Z,1.20
2022-07-31T23:40:34.881Z,1.30
2022-07-31T23:43:22.978Z,1.35
2022-07-31T23:46:13.599Z,1.30
2022-07-31T23:49:06.056Z,1.45
2022-07-31T23:51:55.125Z,1.05
2022-07-31T23:54:44.640Z,1.02
2022-07-31T23:57:34.813Z,1.23
